createdAt,value
2017-03-10T00:00:42.707Z,1019.36
2017-03-10T00:01:42.664Z,1019.31
2017-03-10T00:02:42.672Z,1019.33
2017-03-10T00:03:42.678Z,1019.35
2017-03-10T00:04:42.733Z,1019.35
2017-03-10T00:05:42.688Z,1019.42
2017-03-10T00:06:42.696Z,1019.46
2017-03-10T00:07:42.700Z,1019.49
2017-03-10T00:08:42.709Z,1019.43
2017-03-10T00:09:42.715Z,1019.45
2017-03-10T00:10:42.771Z,1019.44
2017-03-10T00:11:42.726Z,1019.49
2017-03-10T00:12:42.732Z,1019.49
2017-03-10T00:13:42.791Z,1019.48
2017-03-10T00:14:42.747Z,1019.53
2017-03-10T00:15:42.802Z,1019.53
2017-03-10T00:16:42.759Z,1019.56
2017-03-10T00:17:42.765Z,1019.57
2017-03-10T00:18:42.821Z,1019.56
2017-03-10T00:19:42.826Z,1019.54
2017-03-10T00:20:42.785Z,1019.58
2017-03-10T00:21:42.791Z,1019.61
2017-03-10T00:22:42.795Z,1019.62
2017-03-10T00:23:42.804Z,1019.62
2017-03-10T00:24:42.809Z,1019.61
2017-03-10T00:25:42.814Z,1019.65
2017-03-10T00:26:42.824Z,1019.62
2017-03-10T00:27:42.878Z,1019.64
2017-03-10T00:28:42.886Z,1019.68
2017-03-10T00:29:42.840Z,1019.72
2017-03-10T00:30:42.847Z,1019.72
2017-03-10T00:31:42.904Z,1019.74
2017-03-10T00:32:42.910Z,1019.75
2017-03-10T00:33:42.916Z,1019.78
2017-03-10T00:34:42.873Z,1019.72
2017-03-10T00:35:42.929Z,1019.73
2017-03-10T00:36:42.935Z,1019.83
2017-03-10T00:37:42.892Z,1019.78
2017-03-10T00:38:42.947Z,1019.78
2017-03-10T00:39:42.903Z,1019.81
2017-03-10T00:40:42.908Z,1019.77
2017-03-10T00:41:42.966Z,1019.74
2017-03-10T00:42:42.971Z,1019.79
2017-03-10T00:43:42.929Z,1019.78
2017-03-10T00:44:42.932Z,1019.79
2017-03-10T00:45:42.942Z,1019.81
2017-03-10T00:46:42.950Z,1019.85
2017-03-10T00:47:42.953Z,1019.9
2017-03-10T00:48:43.010Z,1019.9
2017-03-10T00:49:43.416Z,1019.87
2017-03-10T00:50:43.023Z,1019.89
2017-03-10T00:51:42.978Z,1019.88
2017-03-10T00:52:42.985Z,1019.82
2017-03-10T00:53:42.991Z,1019.83
2017-03-10T00:54:42.998Z,1019.86
2017-03-10T00:55:43.004Z,1019.79
2017-03-10T00:56:43.009Z,1019.87
2017-03-10T00:57:43.066Z,1019.9
2017-03-10T00:58:43.022Z,1019.88
2017-03-10T00:59:43.079Z,1019.89
2017-03-10T01:00:43.085Z,1019.83
2017-03-10T01:01:43.042Z,1019.83
2017-03-10T01:02:43.046Z,1019.81
2017-03-10T01:03:43.104Z,1019.83
2017-03-10T01:04:43.112Z,1019.84
2017-03-10T01:05:43.068Z,1019.8
2017-03-10T01:06:43.075Z,1019.84
2017-03-10T01:07:43.129Z,1019.88
2017-03-10T01:08:43.113Z,1019.9
2017-03-10T01:09:43.093Z,1019.99
2017-03-10T01:10:43.099Z,1020
2017-03-10T01:11:43.109Z,1020.01
2017-03-10T01:12:43.110Z,1019.96
2017-03-10T01:13:43.117Z,1019.94
2017-03-10T01:14:43.125Z,1019.95
2017-03-10T01:15:43.129Z,1019.96
2017-03-10T01:16:43.186Z,1019.93
2017-03-10T01:17:43.145Z,1019.92
2017-03-10T01:18:43.200Z,1019.98
2017-03-10T01:19:43.155Z,1020.01
2017-03-10T01:20:43.212Z,1020.01
2017-03-10T01:21:43.169Z,1020.09
2017-03-10T01:22:43.175Z,1020.08
2017-03-10T01:23:43.231Z,1020.08
2017-03-10T01:24:43.186Z,1020.07
2017-03-10T01:25:43.195Z,1020.01
2017-03-10T01:26:43.199Z,1020.12
2017-03-10T01:27:43.205Z,1020.11
2017-03-10T01:28:43.213Z,1020.14
2017-03-10T01:29:43.219Z,1020.09
2017-03-10T01:30:43.226Z,1020.1
2017-03-10T01:31:43.230Z,1020.1
2017-03-10T01:32:43.238Z,1020.11
2017-03-10T01:33:43.244Z,1020.13
2017-03-10T01:34:43.251Z,1020.14
2017-03-10T01:35:43.256Z,1020.14
2017-03-10T01:36:43.263Z,1020.14
2017-03-10T01:37:43.319Z,1020.2
2017-03-10T01:38:43.277Z,1020.22
2017-03-10T01:39:43.283Z,1020.2
2017-03-10T01:40:43.288Z,1020.19
2017-03-10T01:41:43.295Z,1020.18
2017-03-10T01:42:43.299Z,1020.19
2017-03-10T01:43:43.306Z,1020.22
2017-03-10T01:44:43.313Z,1020.26
2017-03-10T01:45:43.369Z,1020.29
2017-03-10T01:46:43.374Z,1020.3
2017-03-10T01:47:43.333Z,1020.26
2017-03-10T01:48:43.338Z,1020.27
2017-03-10T01:49:43.345Z,1020.27
2017-03-10T01:50:43.399Z,1020.33
2017-03-10T01:51:43.657Z,1020.31
2017-03-10T01:52:43.364Z,1020.33
2017-03-10T01:53:43.368Z,1020.31
2017-03-10T01:54:43.426Z,1020.38
2017-03-10T01:55:43.681Z,1020.34
2017-03-10T01:56:43.390Z,1020.37
2017-03-10T01:57:43.395Z,1020.41
2017-03-10T01:58:43.400Z,1020.42
2017-03-10T01:59:43.407Z,1020.37
2017-03-10T02:00:43.413Z,1020.34
2017-03-10T02:01:43.420Z,1020.33
2017-03-10T02:02:43.425Z,1020.32
2017-03-10T02:03:43.432Z,1020.28
2017-03-10T02:04:43.437Z,1020.28
2017-03-10T02:05:43.444Z,1020.28
2017-03-10T02:06:43.452Z,1020.33
2017-03-10T02:07:43.457Z,1020.32
2017-03-10T02:08:43.512Z,1020.27
2017-03-10T02:09:43.520Z,1020.25
2017-03-10T02:10:43.478Z,1020.27
2017-03-10T02:11:43.532Z,1020.25
2017-03-10T02:12:43.489Z,1020.3
2017-03-10T02:13:43.545Z,1020.32
2017-03-10T02:14:43.502Z,1020.28
2017-03-10T02:15:43.508Z,1020.28
2017-03-10T02:16:43.564Z,1020.29
2017-03-10T02:17:43.521Z,1020.29
2017-03-10T02:18:43.526Z,1020.28
2017-03-10T02:19:43.532Z,1020.28
2017-03-10T02:20:43.539Z,1020.24
2017-03-10T02:21:43.546Z,1020.27
2017-03-10T02:22:43.553Z,1020.28
2017-03-10T02:23:43.561Z,1020.29
2017-03-10T02:24:43.563Z,1020.29
2017-03-10T02:25:43.572Z,1020.29
2017-03-10T02:26:43.877Z,1020.28
2017-03-10T02:27:43.634Z,1020.27
2017-03-10T02:28:43.591Z,1020.29
2017-03-10T02:29:43.647Z,1020.27
2017-03-10T02:30:43.603Z,1020.28
2017-03-10T02:31:43.610Z,1020.3
2017-03-10T02:32:43.616Z,1020.32
2017-03-10T02:33:43.671Z,1020.31
2017-03-10T02:34:43.679Z,1020.32
2017-03-10T02:35:43.636Z,1020.36
2017-03-10T02:36:43.692Z,1020.35
2017-03-10T02:37:43.696Z,1020.33
2017-03-10T02:38:43.654Z,1020.29
2017-03-10T02:39:43.661Z,1020.32
2017-03-10T02:40:43.716Z,1020.32
2017-03-10T02:41:43.674Z,1020.33
2017-03-10T02:42:43.728Z,1020.35
2017-03-10T02:43:43.736Z,1020.34
2017-03-10T02:44:43.691Z,1020.37
2017-03-10T02:45:43.747Z,1020.4
2017-03-10T02:46:43.755Z,1020.4
2017-03-10T02:47:43.711Z,1020.42
2017-03-10T02:48:43.716Z,1020.41
2017-03-10T02:49:43.722Z,1020.45
2017-03-10T02:50:43.731Z,1020.44
2017-03-10T02:51:43.735Z,1020.43
2017-03-10T02:52:43.792Z,1020.4
2017-03-10T02:53:43.797Z,1020.43
2017-03-10T02:54:43.804Z,1020.41
2017-03-10T02:55:43.810Z,1020.4
2017-03-10T02:56:43.816Z,1020.38
2017-03-10T02:57:43.825Z,1020.41
2017-03-10T02:58:44.224Z,1020.42
2017-03-10T02:59:43.785Z,1020.41
2017-03-10T03:00:43.792Z,1020.46
2017-03-10T03:01:43.799Z,1020.47
2017-03-10T03:02:43.855Z,1020.49
2017-03-10T03:03:43.860Z,1020.45
2017-03-10T03:04:43.868Z,1020.45
2017-03-10T03:05:43.823Z,1020.46
2017-03-10T03:06:43.831Z,1020.46
2017-03-10T03:07:43.837Z,1020.44
2017-03-10T03:08:44.694Z,1020.45
2017-03-10T03:09:43.898Z,1020.46
2017-03-10T03:10:43.906Z,1020.48
2017-03-10T03:11:43.861Z,1020.51
2017-03-10T03:12:43.868Z,1020.47
2017-03-10T03:13:43.924Z,1020.51
2017-03-10T03:14:43.931Z,1020.47
2017-03-10T03:15:43.885Z,1020.48
2017-03-10T03:16:43.893Z,1020.51
2017-03-10T03:17:43.899Z,1020.51
2017-03-10T03:18:43.955Z,1020.46
2017-03-10T03:19:43.912Z,1020.48
2017-03-10T03:20:43.968Z,1020.49
2017-03-10T03:21:43.974Z,1020.46
2017-03-10T03:22:43.981Z,1020.56
2017-03-10T03:23:43.938Z,1020.53
2017-03-10T03:24:43.943Z,1020.55
2017-03-10T03:25:43.948Z,1020.58
2017-03-10T03:26:44.004Z,1020.6
2017-03-10T03:27:43.961Z,1020.61
2017-03-10T03:28:44.018Z,1020.58
2017-03-10T03:29:43.974Z,1020.56
2017-03-10T03:30:43.981Z,1020.6
2017-03-10T03:31:44.037Z,1020.58
2017-03-10T03:32:44.042Z,1020.57
2017-03-10T03:33:44.000Z,1020.6
2017-03-10T03:34:44.006Z,1020.57
2017-03-10T03:35:44.011Z,1020.55
2017-03-10T03:36:44.067Z,1020.56
2017-03-10T03:37:44.025Z,1020.56
2017-03-10T03:38:44.079Z,1020.52
2017-03-10T03:39:44.086Z,1020.48
2017-03-10T03:40:44.043Z,1020.47
2017-03-10T03:41:44.051Z,1020.48
2017-03-10T03:42:44.104Z,1020.51
2017-03-10T03:43:44.111Z,1020.51
2017-03-10T03:44:44.116Z,1020.56
2017-03-10T03:45:44.075Z,1020.58
2017-03-10T03:46:44.081Z,1020.57
2017-03-10T03:47:44.136Z,1020.57
2017-03-10T03:48:44.092Z,1020.52
2017-03-10T03:49:44.399Z,1020.51
2017-03-10T03:50:44.106Z,1020.51
2017-03-10T03:51:44.111Z,1020.49
2017-03-10T03:52:44.218Z,1020.5
2017-03-10T03:53:44.124Z,1020.55
2017-03-10T03:54:44.128Z,1020.51
2017-03-10T03:55:44.136Z,1020.51
2017-03-10T03:56:44.195Z,1020.56
2017-03-10T03:57:44.148Z,1020.56
2017-03-10T03:58:44.154Z,1020.59
2017-03-10T03:59:44.161Z,1020.61
2017-03-10T04:00:44.218Z,1020.63
2017-03-10T04:01:44.172Z,1020.61
2017-03-10T04:02:44.229Z,1020.66
2017-03-10T04:03:44.237Z,1020.58
2017-03-10T04:04:44.242Z,1020.57
2017-03-10T04:05:44.199Z,1020.6
2017-03-10T04:06:44.208Z,1020.57
2017-03-10T04:07:44.211Z,1020.64
2017-03-10T04:08:44.218Z,1020.67
2017-03-10T04:09:44.224Z,1020.65
2017-03-10T04:10:44.230Z,1020.68
2017-03-10T04:11:44.238Z,1020.66
2017-03-10T04:12:44.242Z,1020.65
2017-03-10T04:13:44.251Z,1020.67
2017-03-10T04:14:44.257Z,1020.65
2017-03-10T04:15:44.312Z,1020.67
2017-03-10T04:16:44.320Z,1020.68
2017-03-10T04:17:44.274Z,1020.68
2017-03-10T04:18:44.331Z,1020.69
2017-03-10T04:19:44.285Z,1020.73
2017-03-10T04:20:44.346Z,1020.69
2017-03-10T04:21:44.299Z,1020.73
2017-03-10T04:22:44.306Z,1020.75
2017-03-10T04:23:44.312Z,1020.72
2017-03-10T04:24:44.317Z,1020.72
2017-03-10T04:25:44.374Z,1020.74
2017-03-10T04:26:44.381Z,1020.75
2017-03-10T04:27:44.336Z,1020.76
2017-03-10T04:28:44.392Z,1020.74
2017-03-10T04:29:44.350Z,1020.77
2017-03-10T04:30:44.354Z,1020.76
2017-03-10T04:31:44.362Z,1020.8
2017-03-10T04:32:44.418Z,1020.81
2017-03-10T04:33:44.423Z,1020.8
2017-03-10T04:34:44.381Z,1020.83
2017-03-10T04:35:44.387Z,1020.83
2017-03-10T04:36:44.393Z,1020.85
2017-03-10T04:37:44.400Z,1020.87
2017-03-10T04:38:44.405Z,1020.9
2017-03-10T04:39:44.461Z,1020.89
2017-03-10T04:40:44.420Z,1020.89
2017-03-10T04:41:44.425Z,1020.91
2017-03-10T04:42:44.481Z,1020.85
2017-03-10T04:43:44.489Z,1020.9
2017-03-10T04:44:44.444Z,1020.86
2017-03-10T04:45:44.500Z,1020.93
2017-03-10T04:46:44.506Z,1020.89
2017-03-10T04:47:44.513Z,1020.93
2017-03-10T04:48:44.468Z,1020.94
2017-03-10T04:49:44.475Z,1020.99
2017-03-10T04:50:44.483Z,1020.98
2017-03-10T04:51:44.538Z,1020.99
2017-03-10T04:52:44.494Z,1020.96
2017-03-10T04:53:44.500Z,1020.99
2017-03-10T04:54:44.508Z,1021.01
2017-03-10T04:55:44.513Z,1021.04
2017-03-10T04:56:44.570Z,1021.05
2017-03-10T04:57:44.526Z,1021.05
2017-03-10T04:58:44.583Z,1021.06
2017-03-10T04:59:44.539Z,1021.07
2017-03-10T05:00:44.593Z,1021.09
2017-03-10T05:01:44.552Z,1021.08
2017-03-10T05:02:44.558Z,1021.15
2017-03-10T05:03:44.614Z,1021.11
2017-03-10T05:04:44.569Z,1021.14
2017-03-10T05:05:44.576Z,1021.16
2017-03-10T05:06:44.585Z,1021.11
2017-03-10T05:07:44.592Z,1021.16
2017-03-10T05:08:44.596Z,1021.1
2017-03-10T05:09:44.602Z,1021.1
2017-03-10T05:10:44.608Z,1021.12
2017-03-10T05:11:44.615Z,1021.11
2017-03-10T05:12:44.622Z,1021.13
2017-03-10T05:13:44.627Z,1021.14
2017-03-10T05:14:44.633Z,1021.11
2017-03-10T05:15:44.691Z,1021.14
2017-03-10T05:16:44.700Z,1021.15
2017-03-10T05:17:44.654Z,1021.13
2017-03-10T05:18:44.660Z,1021.15
2017-03-10T05:19:44.665Z,1021.18
2017-03-10T05:20:44.722Z,1021.18
2017-03-10T05:21:44.729Z,1021.18
2017-03-10T05:22:44.735Z,1021.17
2017-03-10T05:23:44.692Z,1021.22
2017-03-10T05:24:44.698Z,1021.25
2017-03-10T05:25:44.703Z,1021.26
2017-03-10T05:26:44.710Z,1021.25
2017-03-10T05:27:44.717Z,1021.27
2017-03-10T05:28:44.724Z,1021.28
2017-03-10T05:29:44.727Z,1021.26
2017-03-10T05:30:44.735Z,1021.23
2017-03-10T05:31:44.743Z,1021.31
2017-03-10T05:32:44.748Z,1021.26
2017-03-10T05:33:44.805Z,1021.26
2017-03-10T05:34:44.811Z,1021.28
2017-03-10T05:35:44.767Z,1021.32
2017-03-10T05:36:44.773Z,1021.32
2017-03-10T05:37:44.779Z,1021.38
2017-03-10T05:38:44.836Z,1021.37
2017-03-10T05:39:44.793Z,1021.37
2017-03-10T05:40:44.798Z,1021.38
2017-03-10T05:41:44.806Z,1021.36
2017-03-10T05:42:44.812Z,1021.35
2017-03-10T05:43:44.819Z,1021.34
2017-03-10T05:44:44.875Z,1021.32
2017-03-10T05:45:44.831Z,1021.3
2017-03-10T05:46:44.839Z,1021.36
2017-03-10T05:47:44.894Z,1021.34
2017-03-10T05:48:44.853Z,1021.38
2017-03-10T05:49:44.857Z,1021.46
2017-03-10T05:50:44.864Z,1021.42
2017-03-10T05:51:44.918Z,1021.45
2017-03-10T05:52:44.925Z,1021.46
2017-03-10T05:53:44.881Z,1021.42
2017-03-10T05:54:44.888Z,1021.41
2017-03-10T05:55:44.896Z,1021.42
2017-03-10T05:56:44.952Z,1021.39
2017-03-10T05:57:44.909Z,1021.42
2017-03-10T05:58:45.222Z,1021.37
2017-03-10T05:59:44.970Z,1021.41
2017-03-10T06:00:44.976Z,1021.44
2017-03-10T06:01:44.933Z,1021.43
2017-03-10T06:02:44.991Z,1021.45
2017-03-10T06:03:44.945Z,1021.47
2017-03-10T06:04:44.952Z,1021.46
2017-03-10T06:05:45.007Z,1021.5
2017-03-10T06:06:44.962Z,1021.54
2017-03-10T06:07:44.972Z,1021.58
2017-03-10T06:08:44.978Z,1021.61
2017-03-10T06:09:44.983Z,1021.6
2017-03-10T06:10:44.990Z,1021.6
2017-03-10T06:11:44.999Z,1021.58
2017-03-10T06:12:45.003Z,1021.58
2017-03-10T06:13:45.009Z,1021.64
2017-03-10T06:14:45.013Z,1021.59
2017-03-10T06:15:45.021Z,1021.61
2017-03-10T06:16:45.027Z,1021.65
2017-03-10T06:17:45.085Z,1021.65
2017-03-10T06:18:45.090Z,1021.64
2017-03-10T06:19:45.097Z,1021.64
2017-03-10T06:20:45.051Z,1021.64
2017-03-10T06:21:45.060Z,1021.62
2017-03-10T06:22:45.066Z,1021.65
2017-03-10T06:23:45.071Z,1021.7
2017-03-10T06:24:45.076Z,1021.68
2017-03-10T06:25:45.085Z,1021.68
2017-03-10T06:26:45.141Z,1021.71
2017-03-10T06:27:45.095Z,1021.71
2017-03-10T06:28:45.104Z,1021.74
2017-03-10T06:29:45.109Z,1021.73
2017-03-10T06:30:45.166Z,1021.77
2017-03-10T06:31:45.171Z,1021.81
2017-03-10T06:32:45.179Z,1021.84
2017-03-10T06:33:45.135Z,1021.91
2017-03-10T06:34:45.142Z,1021.89
2017-03-10T06:35:45.147Z,1021.89
2017-03-10T06:36:45.203Z,1021.9
2017-03-10T06:37:45.161Z,1021.86
2017-03-10T06:38:45.217Z,1021.85
2017-03-10T06:39:45.222Z,1021.85
2017-03-10T06:40:45.179Z,1021.9
2017-03-10T06:41:45.186Z,1021.85
2017-03-10T06:42:45.191Z,1021.88
2017-03-10T06:43:45.248Z,1021.88
2017-03-10T06:44:45.204Z,1021.92
2017-03-10T06:45:45.212Z,1021.9
2017-03-10T06:46:45.218Z,1021.89
2017-03-10T06:47:45.524Z,1021.92
2017-03-10T06:48:45.279Z,1021.89
2017-03-10T06:49:45.235Z,1021.91
2017-03-10T06:50:45.242Z,1021.91
2017-03-10T06:51:45.298Z,1021.91
2017-03-10T06:52:45.257Z,1021.95
2017-03-10T06:53:45.311Z,1021.92
2017-03-10T06:54:45.317Z,1021.96
2017-03-10T06:55:45.274Z,1021.94
2017-03-10T06:56:45.331Z,1021.99
2017-03-10T06:57:45.286Z,1021.97
2017-03-10T06:58:45.292Z,1022
2017-03-10T06:59:45.299Z,1022.03
2017-03-10T07:00:45.305Z,1022.02
2017-03-10T07:01:45.361Z,1022.02
2017-03-10T07:02:45.367Z,1022.01
2017-03-10T07:03:45.374Z,1021.99
2017-03-10T07:04:45.380Z,1021.99
2017-03-10T07:05:45.336Z,1021.99
2017-03-10T07:06:45.343Z,1021.97
2017-03-10T07:07:45.399Z,1021.98
2017-03-10T07:08:45.354Z,1021.99
2017-03-10T07:09:45.413Z,1021.97
2017-03-10T07:10:45.370Z,1022
2017-03-10T07:11:45.423Z,1022.02
2017-03-10T07:12:45.430Z,1022
2017-03-10T07:13:55.650Z,1022.01
2017-03-10T07:14:45.443Z,1022.05
2017-03-10T07:15:45.400Z,1022.06
2017-03-10T07:16:45.406Z,1022.05
2017-03-10T07:17:45.413Z,1022.03
2017-03-10T07:18:45.420Z,1022.02
2017-03-10T07:19:45.475Z,1022.03
2017-03-10T07:20:45.431Z,1022.02
2017-03-10T07:21:45.490Z,1022.04
2017-03-10T07:22:45.445Z,1022.02
2017-03-10T07:23:45.505Z,1022.04
2017-03-10T07:24:45.459Z,1022.02
2017-03-10T07:25:45.466Z,1022.04
2017-03-10T07:26:45.473Z,1022.01
2017-03-10T07:27:45.529Z,1022.02
2017-03-10T07:28:45.485Z,1022.02
2017-03-10T07:29:45.492Z,1022
2017-03-10T07:30:45.500Z,1022.1
2017-03-10T07:31:45.503Z,1022.06
2017-03-10T07:32:45.512Z,1022.08
2017-03-10T07:33:45.567Z,1022.09
2017-03-10T07:34:45.524Z,1022.13
2017-03-10T07:35:45.530Z,1022.15
2017-03-10T07:36:45.537Z,1022.12
2017-03-10T07:37:45.542Z,1022.09
2017-03-10T07:38:45.550Z,1022.13
2017-03-10T07:39:45.559Z,1022.14
2017-03-10T07:40:45.612Z,1022.15
2017-03-10T07:41:45.619Z,1022.19
2017-03-10T07:42:45.576Z,1022.23
2017-03-10T07:43:45.583Z,1022.22
2017-03-10T07:44:45.640Z,1022.22
2017-03-10T07:45:45.595Z,1022.26
2017-03-10T07:46:45.602Z,1022.3
2017-03-10T07:47:45.610Z,1022.34
2017-03-10T07:48:45.666Z,1022.31
2017-03-10T07:49:45.674Z,1022.34
2017-03-10T07:50:45.632Z,1022.36
2017-03-10T07:51:45.636Z,1022.35
2017-03-10T07:52:45.644Z,1022.35
2017-03-10T07:53:45.702Z,1022.37
2017-03-10T07:54:45.759Z,1022.33
2017-03-10T07:55:45.665Z,1022.36
2017-03-10T07:56:45.672Z,1022.38
2017-03-10T07:57:45.978Z,1022.38
2017-03-10T07:58:45.737Z,1022.37
2017-03-10T07:59:45.743Z,1022.35
2017-03-10T08:00:45.700Z,1022.36
2017-03-10T08:01:45.708Z,1022.3
2017-03-10T08:02:45.714Z,1022.32
2017-03-10T08:03:45.723Z,1022.31
2017-03-10T08:04:45.729Z,1022.32
2017-03-10T08:05:45.737Z,1022.34
2017-03-10T08:06:45.792Z,1022.37
2017-03-10T08:07:45.752Z,1022.38
2017-03-10T08:08:45.757Z,1022.36
2017-03-10T08:09:45.824Z,1022.36
2017-03-10T08:10:45.823Z,1022.37
2017-03-10T08:11:45.781Z,1022.36
2017-03-10T08:12:45.788Z,1022.42
2017-03-10T08:13:45.843Z,1022.44
2017-03-10T08:14:45.851Z,1022.48
2017-03-10T08:15:45.809Z,1022.43
2017-03-10T08:16:45.864Z,1022.48
2017-03-10T08:17:45.826Z,1022.48
2017-03-10T08:18:45.830Z,1022.52
2017-03-10T08:19:45.837Z,1022.51
2017-03-10T08:20:45.847Z,1022.57
2017-03-10T08:21:45.902Z,1022.54
2017-03-10T08:22:45.859Z,1022.56
2017-03-10T08:23:45.867Z,1022.58
2017-03-10T08:24:45.873Z,1022.57
2017-03-10T08:25:45.930Z,1022.59
2017-03-10T08:26:45.938Z,1022.59
2017-03-10T08:27:45.946Z,1022.6
2017-03-10T08:28:45.952Z,1022.6
2017-03-10T08:29:45.910Z,1022.62
2017-03-10T08:30:45.917Z,1022.66
2017-03-10T08:31:45.927Z,1022.64
2017-03-10T08:32:45.932Z,1022.68
2017-03-10T08:33:45.939Z,1022.67
2017-03-10T08:34:45.948Z,1022.63
2017-03-10T08:35:45.954Z,1022.68
2017-03-10T08:36:45.961Z,1022.64
2017-03-10T08:37:45.969Z,1022.7
2017-03-10T08:38:46.027Z,1022.7
2017-03-10T08:39:46.034Z,1023.24
2017-03-10T08:40:45.991Z,1022.89
2017-03-10T08:41:45.999Z,1023.32
2017-03-10T08:42:46.009Z,1023.37
2017-03-10T08:43:46.067Z,1023.4
2017-03-10T08:44:46.026Z,1023.37
2017-03-10T08:45:46.038Z,1023.35
2017-03-10T08:46:46.049Z,1023.39
2017-03-10T08:47:46.107Z,1023.44
2017-03-10T08:48:46.117Z,1023.46
2017-03-10T08:49:46.079Z,1023.43
2017-03-10T08:50:46.089Z,1023.4
2017-03-10T08:51:46.101Z,1023.38
2017-03-10T08:52:46.162Z,1023.14
2017-03-10T08:53:46.124Z,1022.95
2017-03-10T08:54:46.137Z,1023.06
2017-03-10T08:55:46.197Z,1022.89
2017-03-10T08:56:46.158Z,1022.94
2017-03-10T08:57:46.215Z,1023.55
2017-03-10T08:58:46.230Z,1023.52
2017-03-10T08:59:46.188Z,1023.13
2017-03-10T09:00:46.200Z,1023.38
2017-03-10T09:01:46.261Z,1023.43
2017-03-10T09:02:46.222Z,1022.81
2017-03-10T09:03:46.283Z,1022.77
2017-03-10T09:04:46.242Z,1023.36
2017-03-10T09:05:46.254Z,1023.46
2017-03-10T09:06:46.264Z,1023.43
2017-03-10T09:07:46.277Z,1023.45
2017-03-10T09:08:46.336Z,1023.42
2017-03-10T09:09:46.300Z,1023.48
2017-03-10T09:10:46.310Z,1023.47
2017-03-10T09:11:46.323Z,1023.47
2017-03-10T09:12:46.384Z,1023.43
2017-03-10T09:13:46.396Z,1023.56
2017-03-10T09:14:46.409Z,1023.51
2017-03-10T09:15:46.420Z,1023.52
2017-03-10T09:16:46.383Z,1023.57
2017-03-10T09:17:46.444Z,1023.56
2017-03-10T09:18:46.409Z,1023.54
2017-03-10T09:19:46.469Z,1023.56
2017-03-10T09:20:46.431Z,1023.68
2017-03-10T09:21:46.494Z,1023.62
2017-03-10T09:22:46.457Z,1023.28
2017-03-10T09:23:46.518Z,1023.64
2017-03-10T09:24:46.531Z,1023.59
2017-03-10T09:25:46.545Z,1023.06
2017-03-10T09:26:46.555Z,1022.88
2017-03-10T09:27:46.517Z,1022.84
2017-03-10T09:28:46.578Z,1022.78
2017-03-10T09:29:46.588Z,1022.74
2017-03-10T09:30:46.549Z,1022.74
2017-03-10T09:31:46.608Z,1022.75
2017-03-10T09:32:46.619Z,1022.79
2017-03-10T09:33:46.630Z,1022.78
2017-03-10T09:34:46.587Z,1022.78
2017-03-10T09:35:46.603Z,1022.79
2017-03-10T09:36:46.605Z,1022.81
2017-03-10T09:37:46.614Z,1022.89
2017-03-10T09:38:46.675Z,1022.86
2017-03-10T09:39:46.680Z,1022.85
2017-03-10T09:40:46.640Z,1022.85
2017-03-10T09:41:46.648Z,1022.82
2017-03-10T09:42:46.656Z,1022.83
2017-03-10T09:43:46.716Z,1022.81
2017-03-10T09:44:46.673Z,1022.79
2017-03-10T09:45:47.130Z,1022.79
2017-03-10T09:46:46.689Z,1022.73
2017-03-10T09:47:46.747Z,1022.77
2017-03-10T09:48:46.754Z,1022.75
2017-03-10T09:49:46.715Z,1022.78
2017-03-10T09:50:46.770Z,1022.78
2017-03-10T09:51:46.728Z,1022.8
2017-03-10T09:52:46.737Z,1022.79
2017-03-10T09:53:46.744Z,1022.81
2017-03-10T09:54:46.756Z,1022.8
2017-03-10T09:55:46.759Z,1022.75
2017-03-10T09:56:46.766Z,1022.77
2017-03-10T09:57:46.774Z,1022.76
2017-03-10T09:58:46.783Z,1022.78
2017-03-10T09:59:46.839Z,1022.78
2017-03-10T10:00:46.798Z,1022.81
2017-03-10T10:01:47.131Z,1022.78
2017-03-10T10:02:46.863Z,1022.75
2017-03-10T10:03:46.824Z,1022.74
2017-03-10T10:04:46.827Z,1022.74
2017-03-10T10:05:46.834Z,1022.73
2017-03-10T10:06:46.892Z,1022.75
2017-03-10T10:07:46.848Z,1022.74
2017-03-10T10:08:46.855Z,1022.77
2017-03-10T10:09:46.862Z,1022.76
2017-03-10T10:10:46.868Z,1022.8
2017-03-10T10:11:46.925Z,1022.77
2017-03-10T10:12:46.931Z,1022.76
2017-03-10T10:13:46.939Z,1022.8
2017-03-10T10:14:46.942Z,1022.8
2017-03-10T10:15:46.899Z,1022.83
2017-03-10T10:16:46.904Z,1022.8
2017-03-10T10:17:46.962Z,1022.83
2017-03-10T10:18:46.967Z,1022.82
2017-03-10T10:19:46.921Z,1022.83
2017-03-10T10:20:46.927Z,1022.81
2017-03-10T10:21:46.984Z,1022.77
2017-03-10T10:22:46.987Z,1022.82
2017-03-10T10:23:46.943Z,1022.79
2017-03-10T10:24:46.950Z,1022.8
2017-03-10T10:25:46.952Z,1022.78
2017-03-10T10:26:46.958Z,1022.85
2017-03-10T10:27:46.966Z,1022.82
2017-03-10T10:28:46.970Z,1022.87
2017-03-10T10:29:46.976Z,1022.81
2017-03-10T10:30:47.032Z,1022.81
2017-03-10T10:31:46.987Z,1022.77
2017-03-10T10:32:47.045Z,1022.78
2017-03-10T10:33:47.050Z,1022.76
2017-03-10T10:34:47.004Z,1022.73
2017-03-10T10:35:47.009Z,1022.74
2017-03-10T10:36:47.019Z,1022.76
2017-03-10T10:37:47.020Z,1022.74
2017-03-10T10:38:47.077Z,1022.76
2017-03-10T10:39:47.032Z,1022.74
2017-03-10T10:40:48.238Z,1022.77
2017-03-10T10:41:47.044Z,1022.76
2017-03-10T10:42:47.100Z,1022.79
2017-03-10T10:43:47.105Z,1022.77
2017-03-10T10:44:47.061Z,1022.72
2017-03-10T10:45:47.127Z,1022.73
2017-03-10T10:46:47.073Z,1022.69
2017-03-10T10:47:47.078Z,1022.74
2017-03-10T10:48:47.086Z,1022.75
2017-03-10T10:49:47.090Z,1022.72
2017-03-10T10:50:47.095Z,1022.74
2017-03-10T10:51:47.101Z,1022.73
2017-03-10T10:52:47.158Z,1022.73
2017-03-10T10:53:47.112Z,1022.75
2017-03-10T10:54:47.166Z,1022.76
2017-03-10T10:55:47.121Z,1022.74
2017-03-10T10:56:47.127Z,1022.79
2017-03-10T10:57:47.133Z,1022.76
2017-03-10T10:58:47.187Z,1022.75
2017-03-10T10:59:47.193Z,1022.74
2017-03-10T11:00:47.149Z,1022.76
2017-03-10T11:01:47.152Z,1022.71
2017-03-10T11:02:47.158Z,1022.69
2017-03-10T11:03:47.213Z,1022.68
2017-03-10T11:04:47.169Z,1022.66
2017-03-10T11:05:47.174Z,1022.67
2017-03-10T11:06:47.232Z,1022.64
2017-03-10T11:07:47.235Z,1022.6
2017-03-10T11:08:47.190Z,1022.58
2017-03-10T11:09:47.195Z,1022.56
2017-03-10T11:10:47.199Z,1022.56
2017-03-10T11:11:47.205Z,1022.51
2017-03-10T11:12:47.211Z,1022.48
2017-03-10T11:13:47.214Z,1022.49
2017-03-10T11:14:47.218Z,1022.46
2017-03-10T11:15:47.225Z,1022.48
2017-03-10T11:16:47.228Z,1022.49
2017-03-10T11:17:47.286Z,1022.49
2017-03-10T11:18:47.240Z,1022.47
2017-03-10T11:19:47.247Z,1022.49
2017-03-10T11:20:47.302Z,1022.42
2017-03-10T11:21:47.307Z,1022.42
2017-03-10T11:22:47.261Z,1022.41
2017-03-10T11:23:47.266Z,1022.38
2017-03-10T11:24:47.272Z,1022.47
2017-03-10T11:25:47.279Z,1022.44
2017-03-10T11:26:47.282Z,1022.41
2017-03-10T11:27:47.287Z,1022.4
2017-03-10T11:28:47.289Z,1022.45
2017-03-10T11:29:47.294Z,1022.4
2017-03-10T11:30:47.299Z,1022.43
2017-03-10T11:31:47.302Z,1022.42
2017-03-10T11:32:47.306Z,1022.42
2017-03-10T11:33:47.310Z,1022.42
2017-03-10T11:34:47.315Z,1022.46
2017-03-10T11:35:47.320Z,1022.39
2017-03-10T11:36:47.374Z,1022.43
2017-03-10T11:37:47.331Z,1022.41
2017-03-10T11:38:47.383Z,1022.46
2017-03-10T11:39:47.390Z,1022.38
2017-03-10T11:40:47.347Z,1022.37
2017-03-10T11:41:47.351Z,1022.33
2017-03-10T11:42:47.360Z,1022.3
2017-03-10T11:44:47.368Z,1022.25
2017-03-10T11:45:47.375Z,1022.24
2017-03-10T11:46:47.379Z,1022.28
2017-03-10T11:47:47.387Z,1022.31
2017-03-10T11:48:47.442Z,1022.29
2017-03-10T11:49:47.396Z,1022.29
2017-03-10T11:50:47.403Z,1022.29
2017-03-10T11:51:47.409Z,1022.26
2017-03-10T11:52:47.463Z,1022.27
2017-03-10T11:53:47.418Z,1022.28
2017-03-10T11:54:47.476Z,1022.29
2017-03-10T11:55:47.429Z,1022.25
2017-03-10T11:56:47.432Z,1022.28
2017-03-10T11:57:47.491Z,1022.27
2017-03-10T11:58:47.445Z,1022.28
2017-03-10T11:59:47.450Z,1022.26
2017-03-10T12:00:47.456Z,1022.25
2017-03-10T12:01:47.461Z,1022.29
2017-03-10T12:02:47.465Z,1022.24
2017-03-10T12:03:47.471Z,1022.23
2017-03-10T12:04:47.524Z,1022.22
2017-03-10T12:05:47.480Z,1022.21
2017-03-10T12:06:47.483Z,1022.17
2017-03-10T12:07:47.487Z,1022.17
2017-03-10T12:08:47.492Z,1022.15